Time;durP1;ratioP1;P1;durP2;ratioP2;P2;SDS_P1;SDS_P2;PMS_P1;PMS_P2;Temp;Humidity;BMP_temperature;BMP_pressure;BME280_temperature;BME280_humidity;BME280_pressure;Samples;Min_cycle;Max_cycle;Signal;HPM_P1;HPM_P2
2022/10/13 00:01:14;;;;;;;18.73;8.93;;;7.50;99.90;;;;;;4769437;30;20208;-80
2022/10/13 00:03:45;;;;;;;17.63;9.23;;;7.40;99.90;;;;;;4769407;30;20256;-81
2022/10/13 00:06:15;;;;;;;18.83;9.07;;;7.40;99.90;;;;;;4769107;30;20251;-81
2022/10/13 00:08:42;;;;;;;18.17;9.37;;;7.30;99.90;;;;;;4769744;30;20207;-80
2022/10/13 00:11:25;;;;;;;15.33;8.80;;;7.30;99.90;;;;;;4769191;30;20218;-81
2022/10/13 00:13:56;;;;;;;18.93;8.17;;;7.30;99.90;;;;;;4754314;30;20223;-79
2022/10/13 00:16:23;;;;;;;21.37;8.70;;;7.30;99.90;;;;;;4769234;30;20211;-80
2022/10/13 00:18:50;;;;;;;18.70;8.40;;;7.30;99.90;;;;;;4770280;30;20209;-80
2022/10/13 00:21:20;;;;;;;16.53;8.97;;;7.20;99.90;;;;;;4769075;30;20216;-82
2022/10/13 00:24:27;;;;;;;17.60;8.87;;;7.20;99.90;;;;;;4770044;30;20223;-81
2022/10/13 00:27:03;;;;;;;18.67;9.07;;;7.10;99.90;;;;;;4755075;30;20213;-81
2022/10/13 00:29:30;;;;;;;19.40;8.97;;;7.20;99.90;;;;;;4769049;30;20217;-79
2022/10/13 00:31:57;;;;;;;15.43;8.87;;;7.10;99.90;;;;;;4768832;30;20307;-81
2022/10/13 00:34:23;;;;;;;16.33;9.33;;;7.10;99.90;;;;;;4771864;30;20208;-80
2022/10/13 00:36:50;;;;;;;17.20;8.70;;;7.10;99.90;;;;;;4771730;30;20240;-80
2022/10/13 00:39:20;;;;;;;19.10;9.33;;;7.00;99.90;;;;;;4788013;30;20666;-81
2022/10/13 00:41:47;;;;;;;17.20;9.20;;;7.00;99.90;;;;;;4771502;30;20219;-78
2022/10/13 00:44:52;;;;;;;17.73;9.20;;;7.00;99.90;;;;;;4771494;30;20262;-80
2022/10/13 00:47:20;;;;;;;16.80;9.77;;;7.00;99.90;;;;;;4775627;30;20208;-81
2022/10/13 00:49:51;;;;;;;19.40;8.97;;;7.00;99.90;;;;;;4775501;30;20212;-80
2022/10/13 00:52:22;;;;;;;17.87;8.93;;;6.90;99.90;;;;;;4775606;30;20218;-80
2022/10/13 00:55:19;;;;;;;17.20;9.47;;;6.90;99.90;;;;;;4773311;30;20205;-81
2022/10/13 00:57:53;;;;;;;20.27;9.93;;;6.80;99.90;;;;;;4791491;30;20222;-81
2022/10/13 01:00:24;;;;;;;18.70;9.73;;;6.80;99.90;;;;;;4775315;30;20259;-81
2022/10/13 01:02:51;;;;;;;23.70;10.23;;;6.70;99.90;;;;;;4774967;29;20240;-81
2022/10/13 01:05:20;;;;;;;20.17;9.67;;;6.70;99.90;;;;;;4775177;30;20290;-81
2022/10/13 01:07:49;;;;;;;20.77;10.20;;;6.70;99.90;;;;;;4775129;30;20214;-80
2022/10/13 01:10:26;;;;;;;19.30;10.40;;;6.70;99.90;;;;;;4791243;30;20208;-80
2022/10/13 01:13:24;;;;;;;20.10;10.00;;;6.60;99.90;;;;;;4775621;30;20227;-80
2022/10/13 01:16:01;;;;;;;18.83;10.10;;;6.60;99.90;;;;;;4775151;30;20203;-80
2022/10/13 01:18:50;;;;;;;21.97;10.90;;;6.50;99.90;;;;;;4791357;29;20210;-80
2022/10/13 01:21:34;;;;;;;16.93;10.43;;;6.50;99.90;;;;;;4791407;30;20283;-81
2022/10/13 01:24:27;;;;;;;24.90;11.60;;;6.40;99.90;;;;;;4774734;30;20324;-81
2022/10/13 01:27:18;;;;;;;20.07;10.73;;;6.40;99.90;;;;;;4774923;30;20214;-81
2022/10/13 01:30:03;;;;;;;18.93;10.67;;;6.40;99.90;;;;;;4774924;30;20294;-81
2022/10/13 01:32:54;;;;;;;24.33;11.97;;;6.30;99.90;;;;;;4760132;29;20212;-81
2022/10/13 01:35:44;;;;;;;20.03;10.97;;;6.30;99.90;;;;;;4767294;30;20701;-80
2022/10/13 01:38:40;;;;;;;21.97;12.10;;;6.30;99.90;;;;;;4774961;30;20211;-82
2022/10/13 01:41:19;;;;;;;22.43;11.70;;;6.20;99.90;;;;;;4774936;30;20725;-81
2022/10/13 01:43:56;;;;;;;24.63;12.80;;;6.10;99.90;;;;;;4763113;30;20239;-80
2022/10/13 01:46:31;;;;;;;21.63;11.73;;;6.10;99.90;;;;;;4771643;30;20673;-81
2022/10/13 01:49:03;;;;;;;21.27;12.33;;;6.10;99.90;;;;;;4771592;30;20214;-80
2022/10/13 01:51:31;;;;;;;22.13;11.93;;;6.00;99.90;;;;;;4773032;30;20205;-80
2022/10/13 01:53:58;;;;;;;24.10;12.03;;;6.10;99.90;;;;;;4774367;30;20207;-80
2022/10/13 01:56:25;;;;;;;21.87;11.87;;;5.90;99.90;;;;;;4789848;29;20226;-81
2022/10/13 01:58:55;;;;;;;26.40;12.77;;;5.90;99.90;;;;;;4774351;30;20215;-80
2022/10/13 02:01:41;;;;;;;23.07;12.67;;;5.90;99.90;;;;;;4774559;30;20269;-80
2022/10/13 02:04:25;;;;;;;28.80;12.67;;;5.90;99.90;;;;;;4774685;30;20234;-80
2022/10/13 02:07:06;;;;;;;24.30;12.47;;;5.80;99.90;;;;;;4774239;30;20203;-81
2022/10/13 02:10:07;;;;;;;26.67;13.20;;;5.80;99.90;;;;;;4757798;30;20561;-81
2022/10/13 02:12:47;;;;;;;24.10;13.07;;;5.80;99.90;;;;;;4767502;30;20683;-81
2022/10/13 02:15:20;;;;;;;29.60;13.50;;;5.80;99.90;;;;;;4771190;30;20218;-81
2022/10/13 02:17:47;;;;;;;26.17;13.00;;;5.80;99.90;;;;;;4771421;30;20215;-81
2022/10/13 02:20:15;;;;;;;24.77;13.57;;;5.70;99.90;;;;;;4771676;30;20206;-81
2022/10/13 02:22:47;;;;;;;25.03;13.60;;;5.70;99.90;;;;;;4764284;30;20679;-81
2022/10/13 02:25:14;;;;;;;25.17;13.33;;;5.80;99.90;;;;;;4772367;30;20875;-81
2022/10/13 02:27:41;;;;;;;29.13;14.43;;;5.80;99.90;;;;;;4771046;30;20215;-81
2022/10/13 02:30:09;;;;;;;27.87;14.03;;;5.80;99.90;;;;;;4771194;30;20236;-81
2022/10/13 02:32:36;;;;;;;29.60;14.97;;;5.70;99.90;;;;;;4772317;30;20200;-81
2022/10/13 02:35:03;;;;;;;27.57;15.07;;;5.70;99.90;;;;;;4771939;30;20200;-82
2022/10/13 02:37:30;;;;;;;33.07;16.27;;;5.70;99.90;;;;;;4770745;30;20292;-82
2022/10/13 02:39:57;;;;;;;29.63;15.27;;;5.60;99.90;;;;;;4770748;30;20212;-80
2022/10/13 02:42:23;;;;;;;30.77;16.27;;;5.50;99.90;;;;;;4770759;30;20204;-81
2022/10/13 02:44:50;;;;;;;30.83;17.00;;;5.60;99.90;;;;;;4771725;30;20246;-81
2022/10/13 02:47:18;;;;;;;31.63;17.80;;;5.40;99.90;;;;;;4770691;30;20221;-82
2022/10/13 02:49:44;;;;;;;33.33;16.97;;;5.40;99.90;;;;;;4755717;30;20207;-82
2022/10/13 02:52:11;;;;;;;34.83;18.03;;;5.50;99.90;;;;;;4755878;30;20653;-81
2022/10/13 02:54:38;;;;;;;31.83;17.90;;;5.40;99.90;;;;;;4770277;30;20209;-82
2022/10/13 02:57:05;;;;;;;39.07;19.50;;;5.30;99.90;;;;;;4771478;30;20203;-81
2022/10/13 02:59:32;;;;;;;40.03;19.73;;;5.30;99.90;;;;;;4770660;30;20226;-82
2022/10/13 03:01:59;;;;;;;33.37;18.50;;;5.40;99.90;;;;;;4771159;30;20244;-82
2022/10/13 03:04:26;;;;;;;38.17;19.77;;;5.20;99.90;;;;;;4771437;30;20230;-80
2022/10/13 03:06:53;;;;;;;34.77;19.17;;;5.20;99.90;;;;;;4740991;30;20215;-82
2022/10/13 03:09:20;;;;;;;39.37;19.50;;;5.20;99.90;;;;;;4769952;30;20218;-81
2022/10/13 03:11:46;;;;;;;37.60;19.23;;;5.10;99.90;;;;;;4769947;30;20209;-81
2022/10/13 03:14:13;;;;;;;32.23;18.13;;;5.10;99.90;;;;;;4771261;30;20200;-82
2022/10/13 03:16:40;;;;;;;35.40;18.40;;;5.10;99.90;;;;;;4769910;30;20677;-80
2022/10/13 03:19:07;;;;;;;33.40;17.87;;;5.10;99.90;;;;;;4770341;30;20259;-81
2022/10/13 03:21:34;;;;;;;34.80;18.57;;;5.10;99.90;;;;;;4770693;30;20197;-81
2022/10/13 03:24:01;;;;;;;31.30;18.10;;;4.90;99.90;;;;;;4755459;30;20254;-81
2022/10/13 03:26:28;;;;;;;37.13;18.67;;;4.80;99.90;;;;;;4771351;30;20562;-81
2022/10/13 03:28:55;;;;;;;32.07;17.60;;;4.90;99.90;;;;;;4770534;30;20226;-81
2022/10/13 03:31:22;;;;;;;34.00;18.03;;;4.80;99.90;;;;;;4771577;30;20207;-82
2022/10/13 03:33:50;;;;;;;29.33;17.80;;;4.80;99.90;;;;;;4770421;30;20208;-81
2022/10/13 03:36:17;;;;;;;32.80;17.40;;;4.70;99.90;;;;;;4771037;30;20270;-81
2022/10/13 03:38:44;;;;;;;30.17;17.80;;;4.70;99.90;;;;;;4769579;30;20213;-81
2022/10/13 03:41:14;;;;;;;28.93;17.33;;;4.70;99.90;;;;;;4770909;30;20539;-81
2022/10/13 03:43:42;;;;;;;30.60;18.30;;;4.80;99.90;;;;;;4754831;30;20226;-81
2022/10/13 03:46:15;;;;;;;31.37;17.83;;;4.80;99.90;;;;;;4769743;30;20263;-81
2022/10/13 03:48:42;;;;;;;32.83;17.57;;;4.80;99.90;;;;;;4754943;30;20206;-80
2022/10/13 03:51:15;;;;;;;28.17;16.27;;;4.70;99.90;;;;;;4754891;30;20207;-81
2022/10/13 03:53:43;;;;;;;31.37;17.67;;;4.70;99.90;;;;;;4754712;30;20207;-80
2022/10/13 03:56:13;;;;;;;31.97;17.37;;;4.60;99.90;;;;;;4769963;30;20214;-81
2022/10/13 03:58:44;;;;;;;29.30;17.23;;;4.60;99.90;;;;;;4769916;30;20620;-81
2022/10/13 04:01:12;;;;;;;31.77;17.73;;;4.60;99.90;;;;;;4770717;30;20255;-80
2022/10/13 04:03:39;;;;;;;29.77;17.30;;;4.50;99.90;;;;;;4754993;30;20233;-81
2022/10/13 04:06:06;;;;;;;29.10;16.87;;;4.50;99.90;;;;;;4769844;30;20203;-81
2022/10/13 04:08:33;;;;;;;30.17;17.37;;;4.50;99.90;;;;;;4770254;30;20556;-81
2022/10/13 04:11:03;;;;;;;31.40;17.13;;;4.50;99.90;;;;;;4769812;30;20725;-81
2022/10/13 04:13:33;;;;;;;29.87;16.70;;;4.40;99.90;;;;;;4770338;30;20203;-81
2022/10/13 04:16:06;;;;;;;28.77;17.27;;;4.40;99.90;;;;;;4770333;30;20214;-81
2022/10/13 04:18:33;;;;;;;32.10;16.70;;;4.40;99.90;;;;;;4770341;30;20204;-81
2022/10/13 04:21:00;;;;;;;29.27;16.57;;;4.40;99.90;;;;;;4769890;30;20206;-81
2022/10/13 04:23:45;;;;;;;30.77;16.80;;;4.30;99.90;;;;;;4771623;30;20671;-81
2022/10/13 04:26:19;;;;;;;31.40;17.03;;;4.20;99.90;;;;;;4788135;30;20617;-80
2022/10/13 04:28:49;;;;;;;27.07;15.77;;;4.30;99.90;;;;;;4788257;30;20275;-81
2022/10/13 04:31:16;;;;;;;31.00;16.60;;;4.20;99.90;;;;;;4786798;30;20215;-81
2022/10/13 04:33:44;;;;;;;29.27;17.07;;;4.20;99.90;;;;;;4772393;30;20201;-81
2022/10/13 04:36:12;;;;;;;28.90;16.30;;;4.20;99.90;;;;;;4786961;30;20572;-81
2022/10/13 04:38:41;;;;;;;28.00;16.60;;;4.20;99.90;;;;;;4786748;30;20240;-81
2022/10/13 04:41:12;;;;;;;28.97;16.47;;;4.10;99.90;;;;;;4771749;30;20209;-81
2022/10/13 04:43:39;;;;;;;29.83;17.00;;;4.20;99.90;;;;;;4772181;30;20208;-81
2022/10/13 04:46:12;;;;;;;31.43;17.00;;;4.20;99.90;;;;;;4771828;30;20216;-82
2022/10/13 04:48:39;;;;;;;28.47;16.77;;;4.20;99.90;;;;;;4772067;30;20205;-80
2022/10/13 04:51:12;;;;;;;26.83;15.60;;;4.20;99.90;;;;;;4772413;30;20209;-81
2022/10/13 04:53:39;;;;;;;30.37;17.33;;;4.10;99.90;;;;;;4767376;30;20196;-81
2022/10/13 04:56:10;;;;;;;28.50;16.50;;;4.10;99.90;;;;;;4769394;30;20313;-81
2022/10/13 04:58:38;;;;;;;30.20;16.83;;;4.10;99.90;;;;;;4769477;30;20210;-81
2022/10/13 05:01:06;;;;;;;29.03;17.30;;;4.00;99.90;;;;;;4769308;30;20683;-81
2022/10/13 05:03:34;;;;;;;32.27;17.87;;;4.00;99.90;;;;;;4770262;30;20232;-81
2022/10/13 05:06:01;;;;;;;29.80;16.87;;;3.90;99.90;;;;;;4768772;30;20210;-81
2022/10/13 05:08:28;;;;;;;31.27;17.93;;;3.90;99.90;;;;;;4768423;30;20202;-77
2022/10/13 05:11:00;;;;;;;28.73;17.30;;;3.90;99.90;;;;;;4768905;30;20208;-81
2022/10/13 05:13:34;;;;;;;33.37;17.93;;;3.90;99.90;;;;;;4753426;30;20212;-81
2022/10/13 05:16:10;;;;;;;32.57;17.90;;;3.80;99.90;;;;;;4753520;30;20223;-80
2022/10/13 05:18:38;;;;;;;31.43;17.87;;;3.80;99.90;;;;;;4768627;30;20542;-81
2022/10/13 05:21:13;;;;;;;30.50;17.97;;;3.80;99.90;;;;;;4768610;30;20209;-79
2022/10/13 05:23:40;;;;;;;32.33;18.07;;;3.80;99.90;;;;;;4768211;30;20219;-80
2022/10/13 05:26:10;;;;;;;30.10;17.43;;;3.80;99.90;;;;;;4769518;30;20566;-77
2022/10/13 05:28:38;;;;;;;33.27;18.70;;;3.80;99.90;;;;;;4754757;30;20221;-79
2022/10/13 05:31:24;;;;;;;33.33;18.07;;;3.90;99.90;;;;;;4769641;30;20832;-79
2022/10/13 05:33:52;;;;;;;33.00;17.83;;;3.80;99.90;;;;;;4758036;30;20204;-79
2022/10/13 05:36:31;;;;;;;30.87;17.53;;;4.00;99.90;;;;;;4771963;30;20225;-79
2022/10/13 05:39:00;;;;;;;32.67;17.73;;;4.00;99.90;;;;;;4772725;30;20195;-80
2022/10/13 05:41:28;;;;;;;32.13;18.03;;;4.10;99.90;;;;;;4772361;30;20278;-80
2022/10/13 05:44:07;;;;;;;32.73;18.87;;;4.30;99.90;;;;;;4757499;30;20206;-80
2022/10/13 05:46:34;;;;;;;36.03;19.57;;;4.50;99.90;;;;;;4771746;30;20250;-80
2022/10/13 05:49:01;;;;;;;33.83;18.73;;;4.60;99.90;;;;;;4772161;30;20203;-79
2022/10/13 05:51:32;;;;;;;33.13;18.07;;;4.60;99.90;;;;;;4771965;30;20524;-77
2022/10/13 05:54:29;;;;;;;36.73;18.50;;;4.80;99.90;;;;;;4770136;30;20223;-79
2022/10/13 05:57:16;;;;;;;33.10;18.60;;;4.80;99.90;;;;;;4770411;30;20676;-77
2022/10/13 06:00:03;;;;;;;32.07;18.63;;;5.00;99.90;;;;;;4771098;30;20223;-78
2022/10/13 06:02:52;;;;;;;30.27;17.67;;;5.00;99.90;;;;;;4773997;30;20602;-78
2022/10/13 06:05:25;;;;;;;28.50;17.37;;;5.10;99.90;;;;;;4773886;30;20230;-77
2022/10/13 06:07:54;;;;;;;28.53;16.93;;;5.20;99.90;;;;;;4774242;30;20201;-79
2022/10/13 06:10:24;;;;;;;30.27;16.90;;;5.20;99.90;;;;;;4774072;30;20237;-80
2022/10/13 06:12:51;;;;;;;32.47;17.80;;;5.30;99.90;;;;;;4759937;29;20291;-79
2022/10/13 06:15:18;;;;;;;29.33;17.57;;;5.40;99.90;;;;;;4781017;29;20227;-79
2022/10/13 06:17:50;;;;;;;30.60;16.90;;;5.50;99.90;;;;;;4770949;30;20207;-79
2022/10/13 06:20:26;;;;;;;31.00;17.80;;;5.50;99.90;;;;;;4756895;30;20214;-81
2022/10/13 06:22:55;;;;;;;28.23;17.00;;;5.60;99.90;;;;;;4771185;30;20653;-80
2022/10/13 06:25:25;;;;;;;27.90;16.63;;;5.70;99.90;;;;;;4756517;30;20250;-81
2022/10/13 06:27:52;;;;;;;34.60;17.50;;;5.80;99.90;;;;;;4770938;30;20201;-79
2022/10/13 06:30:25;;;;;;;29.13;17.47;;;5.90;99.90;;;;;;4771095;30;20571;-78
2022/10/13 06:32:54;;;;;;;30.33;18.00;;;6.00;99.90;;;;;;4770673;30;20302;-78
2022/10/13 06:35:22;;;;;;;30.67;18.20;;;6.10;99.90;;;;;;4770800;30;20227;-76
2022/10/13 06:37:49;;;;;;;31.77;17.30;;;6.30;99.90;;;;;;4771961;30;20309;-77
2022/10/13 06:40:24;;;;;;;30.73;17.10;;;6.30;99.90;;;;;;4770725;30;20283;-78
2022/10/13 06:43:01;;;;;;;29.07;16.83;;;6.40;99.90;;;;;;4755416;30;20221;-78
2022/10/13 06:45:28;;;;;;;31.00;16.13;;;6.60;99.90;;;;;;4770099;30;20741;-79
2022/10/13 06:48:08;;;;;;;29.33;17.63;;;6.70;99.90;;;;;;4756127;30;20213;-77
2022/10/13 06:50:35;;;;;;;32.90;17.23;;;6.80;99.90;;;;;;4770536;30;20204;-77
2022/10/13 06:53:08;;;;;;;29.67;16.77;;;6.90;99.90;;;;;;4770544;30;20208;-78
2022/10/13 06:55:35;;;;;;;32.63;16.57;;;7.00;99.90;;;;;;4770311;30;20215;-77
2022/10/13 06:58:02;;;;;;;28.73;16.70;;;7.20;99.90;;;;;;4770355;30;20540;-77
2022/10/13 07:00:29;;;;;;;28.40;16.10;;;7.40;99.90;;;;;;4770132;30;20230;-78
2022/10/13 07:02:56;;;;;;;30.43;16.03;;;7.40;99.90;;;;;;4771341;30;20288;-79
2022/10/13 07:05:35;;;;;;;28.20;16.07;;;7.60;99.90;;;;;;4771089;30;20209;-78
2022/10/13 07:08:03;;;;;;;28.20;15.07;;;7.70;99.90;;;;;;4770245;30;20300;-78
2022/10/13 07:10:30;;;;;;;28.17;14.07;;;7.90;99.90;;;;;;4769904;30;20666;-78
2022/10/13 07:12:57;;;;;;;27.80;15.80;;;8.00;99.90;;;;;;4770194;30;20292;-78
2022/10/13 07:15:24;;;;;;;34.10;15.83;;;8.20;99.90;;;;;;4769895;30;20315;-79
2022/10/13 07:17:52;;;;;;;28.90;15.00;;;8.30;99.90;;;;;;4769881;30;20288;-79
2022/10/13 07:20:21;;;;;;;30.37;15.80;;;8.40;99.90;;;;;;4770924;30;20235;-79
2022/10/13 07:22:54;;;;;;;33.73;14.47;;;8.60;99.90;;;;;;4769897;30;20219;-78
2022/10/13 07:25:21;;;;;;;22.10;11.73;;;8.70;99.90;;;;;;4769764;30;20243;-78
2022/10/13 07:27:51;;;;;;;21.97;11.73;;;8.80;99.90;;;;;;4769712;30;20208;-78
2022/10/13 07:30:21;;;;;;;25.37;12.70;;;9.00;99.90;;;;;;4769825;30;20262;-78
2022/10/13 07:32:49;;;;;;;30.30;14.80;;;9.10;99.90;;;;;;4754710;30;20243;-77
2022/10/13 07:35:16;;;;;;;27.87;15.53;;;9.20;99.90;;;;;;4770993;30;20276;-77
2022/10/13 07:37:43;;;;;;;37.67;15.33;;;9.40;99.90;;;;;;4770967;30;20926;-78
2022/10/13 07:40:13;;;;;;;30.93;15.13;;;9.50;99.90;;;;;;4769684;30;20321;-78
2022/10/13 07:42:40;;;;;;;28.13;15.50;;;9.60;99.90;;;;;;4770048;30;20213;-79
2022/10/13 07:45:08;;;;;;;28.57;13.00;;;9.70;99.90;;;;;;4769422;30;20241;-80
2022/10/13 07:47:35;;;;;;;29.50;12.80;;;9.80;99.90;;;;;;4769869;30;20535;-79
2022/10/13 07:50:14;;;;;;;23.50;12.03;;;9.80;99.90;;;;;;4769662;30;20217;-80
2022/10/13 07:52:41;;;;;;;23.03;11.80;;;10.10;99.90;;;;;;4769366;30;20231;-79
2022/10/13 07:55:11;;;;;;;27.67;12.17;;;10.80;99.90;;;;;;4753827;30;20736;-81
2022/10/13 07:57:38;;;;;;;33.40;12.30;;;11.50;99.90;;;;;;4769066;30;20282;-78
2022/10/13 08:00:15;;;;;;;19.87;10.93;;;12.20;99.90;;;;;;4770360;30;20232;-79
2022/10/13 08:02:42;;;;;;;45.57;13.17;;;12.60;99.90;;;;;;4784000;29;20208;-79
2022/10/13 08:05:09;;;;;;;20.50;10.97;;;13.20;99.90;;;;;;4769318;30;20236;-80
2022/10/13 08:07:38;;;;;;;33.27;12.30;;;13.50;99.90;;;;;;4770637;30;20193;-80
2022/10/13 08:10:21;;;;;;;21.77;11.10;;;13.70;99.90;;;;;;4770043;30;20687;-80
2022/10/13 08:12:48;;;;;;;26.27;11.53;;;13.90;99.90;;;;;;4769647;30;20216;-80
2022/10/13 08:15:15;;;;;;;28.40;11.53;;;14.10;99.90;;;;;;4784217;30;20201;-79
2022/10/13 08:17:42;;;;;;;21.20;10.70;;;14.00;99.90;;;;;;4769450;30;20213;-80
2022/10/13 08:20:09;;;;;;;21.40;11.10;;;14.00;99.90;;;;;;4770993;30;20212;-79
2022/10/13 08:22:38;;;;;;;20.37;10.97;;;14.20;99.90;;;;;;4753917;30;20261;-77
2022/10/13 08:25:06;;;;;;;27.60;11.30;;;14.30;99.90;;;;;;4768616;30;20324;-78
2022/10/13 08:27:33;;;;;;;32.27;11.77;;;14.50;99.90;;;;;;4754038;30;20207;-81
2022/10/13 08:30:17;;;;;;;27.47;11.33;;;14.60;99.90;;;;;;4769815;30;20209;-80
2022/10/13 08:32:44;;;;;;;30.37;12.83;;;14.90;99.90;;;;;;4769076;30;20240;-79
2022/10/13 08:35:11;;;;;;;27.97;12.93;;;15.20;99.90;;;;;;4784051;30;20547;-80
2022/10/13 08:37:38;;;;;;;23.33;11.33;;;15.30;99.90;;;;;;4753695;30;20252;-80
2022/10/13 08:40:06;;;;;;;25.63;12.70;;;15.30;99.90;;;;;;4768972;30;20237;-79
2022/10/13 08:42:33;;;;;;;21.37;11.37;;;15.40;99.90;;;;;;4770314;30;20555;-81
2022/10/13 08:45:03;;;;;;;22.63;11.50;;;15.70;99.90;;;;;;4768645;30;20699;-79
2022/10/13 08:48:02;;;;;;;20.00;11.00;;;16.00;99.90;;;;;;4770195;30;20558;-79
2022/10/13 08:50:32;;;;;;;22.70;12.53;;;16.10;99.90;;;;;;4754285;30;20602;-78
2022/10/13 08:53:29;;;;;;;25.00;13.63;;;16.50;99.90;;;;;;4754033;30;20693;-77
2022/10/13 08:56:24;;;;;;;23.60;12.93;;;16.80;99.90;;;;;;4768989;30;20216;-78
2022/10/13 08:58:53;;;;;;;25.37;13.63;;;17.10;99.90;;;;;;4770082;30;20611;-77
2022/10/13 09:01:29;;;;;;;24.50;13.43;;;17.30;99.90;;;;;;4768517;30;20205;-78
2022/10/13 09:04:24;;;;;;;28.33;13.83;;;17.40;99.90;;;;;;4768551;30;20752;-78
2022/10/13 09:07:09;;;;;;;23.70;13.03;;;17.70;99.90;;;;;;4740758;30;20606;-80
2022/10/13 09:09:39;;;;;;;22.07;13.33;;;17.80;99.90;;;;;;4757439;30;20596;-77
2022/10/13 09:12:06;;;;;;;44.67;14.63;;;18.00;99.90;;;;;;4786983;30;20213;-79
2022/10/13 09:14:36;;;;;;;30.80;12.63;;;18.30;99.90;;;;;;4771905;30;20266;-80
2022/10/13 09:17:20;;;;;;;21.87;12.10;;;18.60;99.90;;;;;;4773353;30;20199;-83
2022/10/13 09:20:18;;;;;;;24.07;12.10;;;18.90;99.90;;;;;;4757729;30;20209;-84
2022/10/13 09:23:04;;;;;;;21.23;10.80;;;19.20;99.90;;;;;;4773162;30;20235;-81
2022/10/13 09:25:48;;;;;;;32.83;11.50;;;19.30;99.90;;;;;;4757470;30;20718;-80
2022/10/13 09:28:32;;;;;;;18.63;9.93;;;19.50;99.90;;;;;;4773117;30;20193;-80
2022/10/13 09:31:26;;;;;;;16.00;7.80;;;19.60;99.90;;;;;;4773032;30;20212;-82
2022/10/13 09:34:10;;;;;;;15.27;7.67;;;19.00;99.90;;;;;;4771673;30;20251;-82
2022/10/13 09:36:38;;;;;;;17.13;8.23;;;19.00;99.90;;;;;;4771664;30;20213;-82
2022/10/13 09:39:15;;;;;;;14.47;6.70;;;19.40;99.90;;;;;;4756685;30;20315;-83
2022/10/13 09:41:43;;;;;;;15.83;7.63;;;19.60;99.90;;;;;;4771915;30;20561;-82
2022/10/13 09:44:31;;;;;;;15.10;7.43;;;19.60;99.90;;;;;;4786374;30;20264;-80
2022/10/13 09:47:02;;;;;;;12.60;6.40;;;19.90;99.90;;;;;;4771357;30;20260;-78
2022/10/13 09:49:41;;;;;;;12.03;6.57;;;20.00;99.90;;;;;;4771605;30;20201;-78
2022/10/13 09:52:20;;;;;;;15.23;5.70;;;20.10;99.90;;;;;;4771430;30;20208;-78
2022/10/13 09:54:55;;;;;;;11.03;4.80;;;20.20;99.90;;;;;;4771676;30;20246;-79
2022/10/13 09:57:41;;;;;;;12.70;5.00;;;20.60;99.40;;;;;;4772678;30;20207;-81
2022/10/13 10:00:25;;;;;;;8.23;3.70;;;20.80;98.70;;;;;;4770890;30;20690;-80
2022/10/13 10:02:55;;;;;;;7.53;3.30;;;20.10;96.10;;;;;;4771134;30;20204;-78
2022/10/13 10:05:25;;;;;;;6.80;2.60;;;20.20;95.40;;;;;;4772347;30;20217;-78
2022/10/13 10:08:10;;;;;;;6.80;2.60;;;20.40;94.50;;;;;;4771237;30;20258;-78
2022/10/13 10:11:17;;;;;;;9.40;3.07;;;20.70;94.00;;;;;;4772791;30;20237;-79
2022/10/13 10:13:44;;;;;;;9.90;3.60;;;21.10;92.70;;;;;;4772556;30;20205;-80
2022/10/13 10:16:39;;;;;;;10.70;3.80;;;20.90;91.80;;;;;;4770902;30;20304;-80
2022/10/13 10:19:21;;;;;;;10.57;3.97;;;20.60;92.70;;;;;;4770630;30;20209;-77
2022/10/13 10:22:02;;;;;;;6.60;3.30;;;20.40;92.70;;;;;;4771079;30;20193;-79
2022/10/13 10:24:54;;;;;;;10.20;4.30;;;20.70;91.60;;;;;;4784260;30;20449;-79
2022/10/13 10:27:30;;;;;;;7.60;3.43;;;20.70;91.30;;;;;;4770820;30;20225;-78
2022/10/13 10:30:03;;;;;;;9.48;3.70;;;21.00;91.40;;;;;;4770725;30;20545;-80
2022/10/13 10:32:33;;;;;;;8.57;2.83;;;20.90;90.70;;;;;;4770739;30;20224;-79
2022/10/13 10:35:14;;;;;;;7.83;3.20;;;21.00;90.10;;;;;;4771723;30;20205;-80
2022/10/13 10:37:56;;;;;;;8.63;3.43;;;21.20;89.10;;;;;;4770469;30;20229;-81
2022/10/13 10:40:46;;;;;;;8.27;3.00;;;21.30;88.70;;;;;;4772182;30;20208;-80
2022/10/13 10:43:31;;;;;;;5.07;2.67;;;21.70;86.80;;;;;;4770893;30;20212;-78
2022/10/13 10:45:59;;;;;;;4.90;2.40;;;21.30;85.80;;;;;;4755430;30;20249;-78
2022/10/13 10:48:38;;;;;;;7.47;2.40;;;21.30;83.90;;;;;;4770436;30;20208;-78
2022/10/13 10:51:07;;;;;;;7.40;2.43;;;21.30;82.30;;;;;;4770517;30;20208;-80
2022/10/13 10:53:42;;;;;;;4.97;2.30;;;21.00;83.90;;;;;;4755628;30;20216;-80
2022/10/13 10:56:38;;;;;;;7.67;2.73;;;21.40;84.10;;;;;;4770553;30;20205;-79
2022/10/13 10:59:28;;;;;;;6.77;2.60;;;21.80;81.80;;;;;;4772093;30;20197;-79
2022/10/13 11:02:05;;;;;;;8.27;2.50;;;21.70;82.70;;;;;;4771744;30;20208;-79
2022/10/13 11:04:43;;;;;;;5.30;2.40;;;22.10;81.70;;;;;;4763384;30;20245;-77
2022/10/13 11:07:20;;;;;;;7.07;2.30;;;22.30;80.40;;;;;;4787833;30;20251;-77
2022/10/13 11:09:48;;;;;;;7.57;2.40;;;22.50;78.60;;;;;;4789198;30;20208;-78
2022/10/13 11:12:18;;;;;;;9.63;2.90;;;22.50;77.70;;;;;;4773157;30;20207;-78
2022/10/13 11:14:47;;;;;;;6.40;2.57;;;22.80;76.60;;;;;;4788934;30;20674;-78
2022/10/13 11:17:37;;;;;;;7.05;2.47;;;23.10;76.60;;;;;;4789292;30;20270;-77
2022/10/13 11:20:19;;;;;;;11.00;3.03;;;22.60;75.30;;;;;;4789427;30;20267;-78
2022/10/13 11:22:58;;;;;;;9.03;3.37;;;22.30;76.70;;;;;;4772804;30;20219;-77
2022/10/13 11:25:43;;;;;;;6.60;3.10;;;22.20;76.30;;;;;;4788681;30;20200;-78
2022/10/13 11:28:20;;;;;;;7.57;3.20;;;22.20;76.30;;;;;;4772880;30;20204;-77
2022/10/13 11:30:56;;;;;;;9.43;3.30;;;22.30;76.60;;;;;;4788560;29;20227;-78
2022/10/13 11:33:38;;;;;;;7.93;3.20;;;22.30;76.50;;;;;;4772316;30;20215;-77
2022/10/13 11:36:30;;;;;;;9.60;3.27;;;22.70;74.40;;;;;;4787356;30;20220;-77
2022/10/13 11:39:21;;;;;;;8.43;3.47;;;22.60;74.50;;;;;;4787541;30;20235;-79
2022/10/13 11:41:53;;;;;;;9.20;3.50;;;23.00;74.10;;;;;;4788837;30;20604;-75
2022/10/13 11:44:36;;;;;;;9.07;3.28;;;24.10;72.00;;;;;;4772069;30;20278;-89
2022/10/13 11:47:31;;;;;;;8.30;3.40;;;24.60;69.90;;;;;;4772113;30;20588;-83
2022/10/13 11:52:49;;;;;;;8.60;3.40;;;25.10;67.80;;;;;;4808972;24;20318;-84
2022/10/13 11:55:44;;;;;;;6.55;2.90;;;25.90;65.70;;;;;;4793251;24;20687;-84
2022/10/13 11:58:22;;;;;;;5.10;2.80;;;25.70;64.10;;;;;;4780587;29;20207;-80
2022/10/13 12:01:05;;;;;;;4.90;2.67;;;25.60;64.00;;;;;;4789293;29;20207;-77
2022/10/13 12:03:33;;;;;;;5.90;2.70;;;26.00;62.20;;;;;;4789649;29;20199;-79
2022/10/13 12:06:03;;;;;;;8.98;2.75;;;26.10;62.40;;;;;;4805707;29;20227;-79
2022/10/13 12:08:34;;;;;;;7.75;3.10;;;26.30;61.90;;;;;;4789514;29;20212;-79
2022/10/13 12:11:06;;;;;;;7.43;3.33;;;26.50;60.00;;;;;;4805560;29;20242;-80
2022/10/13 12:13:36;;;;;;;8.90;3.40;;;26.70;59.00;;;;;;4788944;29;20658;-79
2022/10/13 12:16:05;;;;;;;7.85;3.30;;;26.40;59.60;;;;;;4789382;29;20212;-80
2022/10/13 12:18:33;;;;;;;7.55;2.80;;;26.40;59.20;;;;;;4789314;29;20226;-80
2022/10/13 12:21:09;;;;;;;7.88;2.90;;;25.60;59.50;;;;;;4789462;29;20206;-82
2022/10/13 12:23:36;;;;;;;5.07;2.80;;;24.30;61.30;;;;;;4789516;29;20203;-80
2022/10/13 12:26:03;;;;;;;6.63;3.28;;;23.80;64.10;;;;;;4789088;29;20224;-83
2022/10/13 12:28:55;;;;;;;6.68;3.10;;;23.80;63.50;;;;;;4789193;29;20331;-84
2022/10/13 12:31:47;;;;;;;6.47;2.80;;;23.80;64.10;;;;;;4774398;29;20242;-81
2022/10/13 12:34:36;;;;;;;5.43;2.80;;;24.30;63.00;;;;;;4789139;29;20208;-79
2022/10/13 12:37:22;;;;;;;6.65;2.72;;;24.00;63.40;;;;;;4789382;29;20191;-81
2022/10/13 12:39:52;;;;;;;8.50;2.80;;;23.50;64.10;;;;;;4789649;29;20736;-81
2022/10/13 12:42:28;;;;;;;8.48;2.50;;;23.30;64.60;;;;;;4771015;30;20204;-84
2022/10/13 12:44:57;;;;;;;7.90;2.83;;;23.40;65.10;;;;;;4787472;30;20199;-82
2022/10/13 12:47:48;;;;;;;7.00;2.60;;;23.10;65.20;;;;;;4757292;30;20236;-80
2022/10/13 12:50:31;;;;;;;6.18;2.95;;;22.80;66.60;;;;;;4771100;30;20312;-80
2022/10/13 12:53:07;;;;;;;6.37;3.10;;;22.50;66.60;;;;;;4771174;30;20299;-79
2022/10/13 12:55:50;;;;;;;8.03;3.50;;;21.70;69.20;;;;;;4786915;30;20239;-84
2022/10/13 12:58:43;;;;;;;8.43;3.47;;;20.90;71.70;;;;;;4771119;30;20220;-80
2022/10/13 13:01:13;;;;;;;7.77;3.20;;;19.80;75.10;;;;;;4770182;30;20614;-81
2022/10/13 13:03:43;;;;;;;6.83;2.90;;;18.80;78.50;;;;;;4771210;30;20208;-83
2022/10/13 13:06:34;;;;;;;9.83;3.70;;;18.40;80.50;;;;;;4770778;30;20358;-85
2022/10/13 13:09:11;;;;;;;8.73;3.60;;;18.20;82.20;;;;;;4770844;30;20220;-85
2022/10/13 13:11:44;;;;;;;11.70;3.90;;;18.10;82.50;;;;;;4786942;30;20655;-83
2022/10/13 13:14:43;;;;;;;10.27;3.60;;;18.00;83.90;;;;;;4786884;30;20789;-87
2022/10/13 13:17:17;;;;;;;9.33;3.00;;;17.80;84.80;;;;;;4770963;30;20208;-88